createdAt,value
2023-04-04T00:00:08.991Z,3.72
2023-04-04T00:01:11.106Z,3.50
2023-04-04T00:02:13.338Z,3.53
2023-04-04T00:03:15.691Z,3.28
2023-04-04T00:04:17.883Z,3.92
2023-04-04T00:05:20.061Z,4.28
2023-04-04T00:06:22.248Z,3.03
2023-04-04T00:07:24.439Z,2.97
2023-04-04T00:08:26.597Z,3.60
2023-04-04T00:09:28.781Z,3.10
2023-04-04T00:10:31.310Z,3.50
2023-04-04T00:11:33.858Z,3.10
2023-04-04T00:12:36.560Z,3.17
2023-04-04T00:13:38.999Z,3.50
2023-04-04T00:14:41.433Z,3.08
2023-04-04T00:15:43.559Z,3.38
2023-04-04T00:16:45.765Z,3.45
2023-04-04T00:17:47.864Z,3.95
2023-04-04T00:18:50.502Z,3.85
2023-04-04T00:19:52.616Z,3.30
2023-04-04T00:20:54.809Z,3.30
2023-04-04T00:21:56.979Z,3.00
2023-04-04T00:22:59.136Z,3.55
2023-04-04T00:24:01.270Z,3.40
2023-04-04T00:25:03.593Z,3.38
2023-04-04T00:26:06.388Z,3.45
2023-04-04T00:27:08.525Z,3.55
2023-04-04T00:28:10.727Z,3.30
2023-04-04T00:29:12.855Z,3.08
2023-04-04T00:30:15.461Z,2.97
2023-04-04T00:31:17.909Z,4.18
2023-04-04T00:32:20.413Z,3.35
2023-04-04T00:33:22.777Z,3.70
2023-04-04T00:34:24.941Z,3.55
2023-04-04T00:35:27.082Z,3.17
2023-04-04T00:36:29.333Z,3.28
2023-04-04T00:37:31.435Z,4.00
2023-04-04T00:38:33.770Z,3.45
2023-04-04T00:39:35.902Z,3.95
2023-04-04T00:40:49.292Z,3.85
2023-04-04T00:41:51.581Z,4.32
2023-04-04T00:42:53.781Z,4.43
2023-04-04T00:43:56.673Z,3.55
2023-04-04T00:44:58.811Z,3.83
2023-04-04T00:46:00.970Z,4.40
2023-04-04T00:47:04.602Z,3.47
2023-04-04T00:48:06.842Z,3.90
2023-04-04T00:49:08.998Z,3.80
2023-04-04T00:50:11.343Z,3.55
2023-04-04T00:51:13.562Z,3.45
2023-04-04T00:52:15.748Z,3.85
2023-04-04T00:53:17.958Z,3.78
2023-04-04T00:54:20.673Z,3.88
2023-04-04T00:55:23.043Z,3.20
2023-04-04T00:56:25.458Z,3.17
2023-04-04T00:57:28.906Z,3.58
2023-04-04T00:58:31.362Z,3.45
2023-04-04T00:59:33.954Z,4.05
2023-04-04T01:00:37.439Z,4.50
2023-04-04T01:01:39.778Z,3.83
2023-04-04T01:02:42.000Z,3.55
2023-04-04T01:03:45.452Z,3.25
2023-04-04T01:04:48.674Z,3.20
2023-04-04T01:05:50.773Z,3.42
2023-04-04T01:06:52.891Z,2.85
2023-04-04T01:07:55.193Z,3.70
2023-04-04T01:08:57.488Z,2.92
2023-04-04T01:09:59.537Z,3.47
2023-04-04T01:11:01.726Z,3.53
2023-04-04T01:12:04.117Z,4.18
2023-04-04T01:13:06.725Z,3.47
2023-04-04T01:14:08.850Z,3.47
2023-04-04T01:15:11.479Z,3.15
2023-04-04T01:16:13.800Z,3.47
2023-04-04T01:17:15.934Z,3.15
2023-04-04T01:18:20.631Z,3.28
2023-04-04T01:19:29.705Z,3.15
2023-04-04T01:20:34.569Z,3.47
2023-04-04T01:21:37.615Z,3.53
2023-04-04T01:22:40.687Z,3.22
2023-04-04T01:24:03.077Z,3.70
2023-04-04T01:25:06.460Z,3.92
2023-04-04T01:26:08.589Z,3.08
2023-04-04T01:27:10.718Z,3.92
2023-04-04T01:28:12.810Z,3.60
2023-04-04T01:29:14.996Z,3.00
2023-04-04T01:30:17.585Z,3.55
2023-04-04T01:31:26.842Z,2.55
2023-04-04T01:32:45.119Z,3.10
2023-04-04T01:33:55.082Z,3.13
2023-04-04T01:35:21.379Z,3.28
2023-04-04T01:36:49.480Z,3.67
2023-04-04T01:38:15.962Z,3.88
2023-04-04T01:39:40.387Z,3.05
2023-04-04T01:40:51.270Z,2.97
2023-04-04T01:41:54.668Z,4.07
2023-04-04T01:42:57.434Z,3.40
2023-04-04T01:44:00.665Z,2.97
2023-04-04T01:45:03.034Z,2.92
2023-04-04T01:46:05.539Z,2.47
2023-04-04T01:47:11.165Z,3.40
2023-04-04T01:48:16.623Z,3.22
2023-04-04T01:49:18.744Z,3.60
2023-04-04T01:50:20.938Z,3.33
2023-04-04T01:51:24.064Z,3.55
2023-04-04T01:52:26.242Z,3.00
2023-04-04T01:53:28.415Z,3.22
2023-04-04T01:54:32.309Z,2.95
2023-04-04T01:55:34.429Z,3.45
2023-04-04T01:56:36.538Z,2.90
2023-04-04T01:57:38.676Z,4.38
2023-04-04T01:58:41.200Z,4.07
2023-04-04T01:59:43.302Z,3.30
2023-04-04T02:00:45.473Z,3.50
2023-04-04T02:01:47.687Z,3.10
2023-04-04T02:02:49.883Z,3.63
2023-04-04T02:03:52.126Z,3.15
2023-04-04T02:04:55.384Z,3.22
2023-04-04T02:05:57.517Z,3.35
2023-04-04T02:07:00.232Z,3.45
2023-04-04T02:08:03.171Z,3.33
2023-04-04T02:09:05.287Z,3.47
2023-04-04T02:10:08.021Z,3.67
2023-04-04T02:11:10.208Z,3.47
2023-04-04T02:12:12.854Z,3.28
2023-04-04T02:13:15.011Z,3.60
2023-04-04T02:14:17.098Z,4.68
2023-04-04T02:15:19.484Z,3.47
2023-04-04T02:16:21.699Z,3.78
2023-04-04T02:17:23.983Z,3.55
2023-04-04T02:18:26.108Z,3.60
2023-04-04T02:19:28.227Z,4.10
2023-04-04T02:20:30.411Z,3.05
2023-04-04T02:21:32.485Z,3.67
2023-04-04T02:22:34.558Z,3.28
2023-04-04T02:23:36.925Z,2.92
2023-04-04T02:24:39.108Z,3.47
2023-04-04T02:25:41.212Z,3.92
2023-04-04T02:26:43.349Z,3.58
2023-04-04T02:27:45.539Z,3.42
2023-04-04T02:28:47.612Z,3.55
2023-04-04T02:29:49.746Z,4.20
2023-04-04T02:30:52.275Z,3.17
2023-04-04T02:31:54.422Z,3.47
2023-04-04T02:33:00.009Z,3.55
2023-04-04T02:34:02.214Z,3.72
2023-04-04T02:35:04.699Z,4.00
2023-04-04T02:36:06.944Z,3.45
2023-04-04T02:37:09.068Z,2.90
2023-04-04T02:38:11.238Z,3.60
2023-04-04T02:39:13.328Z,3.05
2023-04-04T02:40:15.837Z,3.50
2023-04-04T02:41:17.978Z,3.85
2023-04-04T02:42:20.094Z,4.18
2023-04-04T02:43:22.239Z,3.42
2023-04-04T02:44:24.335Z,3.60
2023-04-04T02:45:26.554Z,4.63
2023-04-04T02:46:28.695Z,4.78
2023-04-04T02:47:30.873Z,3.20
2023-04-04T02:48:33.024Z,3.25
2023-04-04T02:49:35.872Z,4.13
2023-04-04T02:50:39.564Z,3.28
2023-04-04T02:51:41.966Z,4.10
2023-04-04T02:52:44.171Z,3.83
2023-04-04T02:53:47.008Z,3.17
2023-04-04T02:54:49.857Z,3.28
2023-04-04T02:55:52.466Z,2.90
2023-04-04T02:56:54.614Z,3.85
2023-04-04T02:57:56.932Z,3.30
2023-04-04T02:58:59.509Z,3.63
2023-04-04T03:00:04.098Z,3.13
2023-04-04T03:01:06.329Z,4.10
2023-04-04T03:02:08.571Z,3.65
2023-04-04T03:03:10.956Z,3.42
2023-04-04T03:04:13.767Z,3.60
2023-04-04T03:05:15.850Z,3.63
2023-04-04T03:06:18.627Z,3.58
2023-04-04T03:07:22.129Z,2.92
2023-04-04T03:08:24.470Z,3.47
2023-04-04T03:09:26.569Z,3.60
2023-04-04T03:10:32.434Z,3.90
2023-04-04T03:11:34.675Z,4.22
2023-04-04T03:12:36.786Z,3.33
2023-04-04T03:13:38.908Z,3.75
2023-04-04T03:14:41.005Z,4.43
2023-04-04T03:15:43.937Z,3.42
2023-04-04T03:16:50.051Z,3.60
2023-04-04T03:17:52.865Z,3.90
2023-04-04T03:18:55.844Z,3.50
2023-04-04T03:19:57.979Z,3.65
2023-04-04T03:21:00.235Z,3.55
2023-04-04T03:22:02.311Z,3.50
2023-04-04T03:23:04.445Z,3.42
2023-04-04T03:24:06.808Z,3.63
2023-04-04T03:25:09.459Z,3.88
2023-04-04T03:26:11.594Z,3.63
2023-04-04T03:27:13.761Z,3.30
2023-04-04T03:28:16.150Z,3.58
2023-04-04T03:29:18.563Z,3.17
2023-04-04T03:30:20.946Z,4.35
2023-04-04T03:31:23.061Z,3.42
2023-04-04T03:32:25.881Z,3.42
2023-04-04T03:33:28.085Z,3.83
2023-04-04T03:34:30.712Z,3.67
2023-04-04T03:35:32.826Z,3.40
2023-04-04T03:36:34.962Z,3.38
2023-04-04T03:37:37.223Z,2.83
2023-04-04T03:38:39.478Z,3.47
2023-04-04T03:39:42.037Z,3.72
2023-04-04T03:40:44.535Z,3.90
2023-04-04T03:41:46.828Z,3.50
2023-04-04T03:42:49.027Z,3.95
2023-04-04T03:43:51.412Z,3.70
2023-04-04T03:44:53.784Z,3.70
2023-04-04T03:46:00.494Z,3.67
2023-04-04T03:47:02.627Z,3.58
2023-04-04T03:48:04.901Z,3.10
2023-04-04T03:49:07.019Z,3.63
2023-04-04T03:50:09.724Z,3.70
2023-04-04T03:51:12.578Z,4.88
2023-04-04T03:52:14.694Z,4.18
2023-04-04T03:53:16.845Z,3.40
2023-04-04T03:54:19.050Z,3.30
2023-04-04T03:55:21.465Z,4.00
2023-04-04T03:56:23.608Z,3.83
2023-04-04T03:57:27.215Z,3.40
2023-04-04T03:58:30.305Z,3.88
2023-04-04T03:59:32.493Z,3.78
2023-04-04T04:00:34.631Z,4.47
2023-04-04T04:01:36.737Z,3.50
2023-04-04T04:02:39.274Z,3.40
2023-04-04T04:03:41.933Z,3.38
2023-04-04T04:04:44.129Z,3.25
2023-04-04T04:05:46.709Z,3.70
2023-04-04T04:06:48.949Z,3.38
2023-04-04T04:07:52.887Z,4.05
2023-04-04T04:08:56.460Z,3.03
2023-04-04T04:09:59.267Z,3.97
2023-04-04T04:11:05.423Z,3.75
2023-04-04T04:12:08.092Z,3.72
2023-04-04T04:13:10.208Z,3.42
2023-04-04T04:14:13.179Z,4.40
2023-04-04T04:15:15.349Z,3.47
2023-04-04T04:16:17.474Z,3.75
2023-04-04T04:17:19.796Z,3.83
2023-04-04T04:18:22.013Z,4.03
2023-04-04T04:19:24.142Z,5.13
2023-04-04T04:20:26.580Z,4.00
2023-04-04T04:21:28.739Z,4.70
2023-04-04T04:22:31.138Z,3.97
2023-04-04T04:23:33.250Z,4.50
2023-04-04T04:24:35.424Z,4.00
2023-04-04T04:25:37.540Z,5.32
2023-04-04T04:26:39.623Z,5.47
2023-04-04T04:27:42.040Z,4.72
2023-04-04T04:28:44.222Z,4.07
2023-04-04T04:29:46.309Z,4.65
2023-04-04T04:30:48.715Z,4.68
2023-04-04T04:31:53.005Z,4.18
2023-04-04T04:32:55.320Z,3.90
2023-04-04T04:33:57.955Z,4.22
2023-04-04T04:35:00.152Z,4.72
2023-04-04T04:36:05.850Z,3.60
2023-04-04T04:37:08.070Z,4.72
2023-04-04T04:38:10.920Z,5.13
2023-04-04T04:39:13.065Z,3.83
2023-04-04T04:40:16.389Z,4.40
2023-04-04T04:41:18.585Z,4.13
2023-04-04T04:42:21.494Z,4.95
2023-04-04T04:43:24.234Z,4.65
2023-04-04T04:44:26.346Z,4.95
2023-04-04T04:45:28.562Z,3.92
2023-04-04T04:46:31.831Z,4.70
2023-04-04T04:47:34.149Z,4.80
2023-04-04T04:48:36.374Z,4.20
2023-04-04T04:49:38.511Z,4.05
2023-04-04T04:50:40.798Z,5.03
2023-04-04T04:51:43.164Z,4.35
2023-04-04T04:52:45.372Z,3.90
2023-04-04T04:53:47.503Z,4.22
2023-04-04T04:54:51.001Z,4.05
2023-04-04T04:55:53.609Z,4.70
2023-04-04T04:56:55.904Z,4.38
2023-04-04T04:57:57.995Z,3.92
2023-04-04T04:59:00.484Z,4.60
2023-04-04T05:00:04.489Z,4.43
2023-04-04T05:01:06.761Z,4.18
2023-04-04T05:02:09.047Z,5.05
2023-04-04T05:03:11.273Z,4.72
2023-04-04T05:04:13.395Z,4.15
2023-04-04T05:05:16.064Z,5.05
2023-04-04T05:06:18.168Z,4.38
2023-04-04T05:07:20.331Z,4.65
2023-04-04T05:08:22.745Z,5.25
2023-04-04T05:09:24.897Z,4.90
2023-04-04T05:10:27.032Z,4.32
2023-04-04T05:11:29.188Z,4.55
2023-04-04T05:12:31.554Z,4.00
2023-04-04T05:13:33.721Z,4.50
2023-04-04T05:14:37.617Z,5.72
2023-04-04T05:15:39.794Z,4.35
2023-04-04T05:16:42.934Z,5.38
2023-04-04T05:17:45.113Z,4.43
2023-04-04T05:18:47.277Z,5.45
2023-04-04T05:19:49.482Z,4.88
2023-04-04T05:20:53.389Z,4.50
2023-04-04T05:21:55.532Z,5.72
2023-04-04T05:22:57.635Z,4.32
2023-04-04T05:24:00.174Z,6.03
2023-04-04T05:25:02.570Z,5.55
2023-04-04T05:26:04.677Z,4.25
2023-04-04T05:27:06.807Z,5.35
2023-04-04T05:28:09.079Z,6.70
2023-04-04T05:29:11.355Z,5.00
2023-04-04T05:30:13.574Z,6.63
2023-04-04T05:31:15.744Z,5.82
2023-04-04T05:32:18.097Z,4.10
2023-04-04T05:33:20.226Z,3.78
2023-04-04T05:34:22.385Z,5.30
2023-04-04T05:35:25.341Z,5.90
2023-04-04T05:36:28.091Z,5.00
2023-04-04T05:37:30.989Z,5.28
2023-04-04T05:38:33.734Z,4.75
2023-04-04T05:39:36.807Z,5.35
2023-04-04T05:40:39.115Z,4.97
2023-04-04T05:41:41.446Z,5.50
2023-04-04T05:42:43.950Z,6.03
2023-04-04T05:43:46.089Z,6.28
2023-04-04T05:44:48.187Z,5.20
2023-04-04T05:45:50.363Z,7.10
2023-04-04T05:46:52.559Z,5.75
2023-04-04T05:47:54.825Z,5.57
2023-04-04T05:48:57.014Z,6.00
2023-04-04T05:49:59.080Z,5.00
2023-04-04T05:51:01.379Z,6.03
2023-04-04T05:52:03.481Z,5.43
2023-04-04T05:53:05.656Z,5.28
2023-04-04T05:54:08.173Z,5.25
2023-04-04T05:55:10.357Z,5.47
2023-04-04T05:56:12.561Z,6.03
2023-04-04T05:57:14.676Z,6.75
2023-04-04T05:58:16.817Z,5.00
2023-04-04T05:59:19.074Z,5.55
2023-04-04T06:00:21.293Z,6.35
2023-04-04T06:01:23.372Z,5.72
2023-04-04T06:02:26.266Z,5.88
2023-04-04T06:03:29.021Z,5.53
2023-04-04T06:04:31.170Z,6.20
2023-04-04T06:05:33.349Z,5.65
2023-04-04T06:06:35.779Z,5.78
2023-04-04T06:07:38.321Z,5.63
2023-04-04T06:08:52.324Z,5.63
2023-04-04T06:09:55.800Z,4.55
2023-04-04T06:10:57.964Z,5.10
2023-04-04T06:12:00.162Z,5.47
2023-04-04T06:13:02.334Z,5.13
2023-04-04T06:14:04.425Z,4.55
2023-04-04T06:15:07.380Z,5.25
2023-04-04T06:16:09.555Z,4.70
2023-04-04T06:17:11.702Z,4.65
2023-04-04T06:18:13.969Z,4.72
2023-04-04T06:19:16.889Z,3.20
2023-04-04T06:20:21.154Z,3.70
2023-04-04T06:21:23.268Z,4.30
2023-04-04T06:22:25.556Z,2.53
2023-04-04T06:23:27.669Z,3.70
2023-04-04T06:24:29.832Z,3.58
2023-04-04T06:25:32.373Z,3.38
2023-04-04T06:26:34.560Z,3.35
2023-04-04T06:27:36.916Z,3.75
2023-04-04T06:28:47.034Z,4.10
2023-04-04T06:29:49.251Z,3.55
2023-04-04T06:30:51.671Z,3.88
2023-04-04T06:31:53.799Z,4.00
2023-04-04T06:32:56.652Z,4.13
2023-04-04T06:33:59.148Z,3.83
2023-04-04T06:35:01.243Z,3.22
2023-04-04T06:36:03.407Z,3.65
2023-04-04T06:37:05.918Z,4.32
2023-04-04T06:38:08.723Z,3.85
2023-04-04T06:39:10.852Z,3.72
2023-04-04T06:40:12.969Z,3.65
2023-04-04T06:41:15.139Z,4.35
2023-04-04T06:42:17.588Z,4.03
2023-04-04T06:43:19.769Z,3.47
2023-04-04T06:44:22.330Z,5.07
2023-04-04T06:45:28.471Z,4.60
2023-04-04T06:46:33.226Z,3.83
2023-04-04T06:47:35.382Z,4.13
2023-04-04T06:48:37.627Z,4.20
2023-04-04T06:49:39.716Z,4.22
2023-04-04T06:50:42.012Z,3.50
2023-04-04T06:51:44.606Z,4.30
2023-04-04T06:52:47.414Z,3.72
2023-04-04T06:53:50.006Z,4.55
2023-04-04T06:54:52.748Z,3.92
2023-04-04T06:55:54.903Z,4.15
2023-04-04T06:56:57.287Z,5.15
2023-04-04T06:57:59.364Z,3.00
2023-04-04T06:59:01.558Z,3.28
2023-04-04T07:00:04.240Z,4.40
2023-04-04T07:01:06.475Z,3.58
2023-04-04T07:02:08.646Z,2.47
2023-04-04T07:03:11.216Z,3.88
2023-04-04T07:04:13.305Z,3.33
2023-04-04T07:05:18.062Z,3.85
2023-04-04T07:06:25.770Z,4.18
2023-04-04T07:07:29.957Z,3.38
2023-04-04T07:08:36.132Z,3.97
2023-04-04T07:09:38.865Z,4.00
2023-04-04T07:10:41.509Z,3.85
2023-04-04T07:11:43.699Z,3.75
2023-04-04T07:12:46.075Z,3.72
2023-04-04T07:13:48.263Z,3.03
2023-04-04T07:14:50.473Z,4.10
2023-04-04T07:15:52.917Z,4.18
2023-04-04T07:16:55.490Z,4.90
2023-04-04T07:17:58.042Z,3.78
2023-04-04T07:19:00.980Z,3.95
2023-04-04T07:20:04.751Z,3.67
2023-04-04T07:21:07.107Z,3.42
2023-04-04T07:22:09.202Z,4.03
2023-04-04T07:23:11.752Z,3.45
2023-04-04T07:24:13.876Z,4.07
2023-04-04T07:25:16.106Z,3.80
2023-04-04T07:26:18.187Z,4.55
2023-04-04T07:27:20.367Z,4.93
2023-04-04T07:28:22.906Z,3.92
2023-04-04T07:29:25.102Z,3.70
2023-04-04T07:30:30.116Z,4.05
2023-04-04T07:31:32.666Z,3.45
2023-04-04T07:32:35.449Z,4.72
2023-04-04T07:33:37.639Z,3.47
2023-04-04T07:34:39.762Z,3.92
2023-04-04T07:35:42.366Z,4.13
2023-04-04T07:36:44.532Z,4.03
2023-04-04T07:37:47.061Z,3.75
2023-04-04T07:38:49.209Z,3.67
2023-04-04T07:39:51.386Z,4.10
2023-04-04T07:40:53.572Z,3.70
2023-04-04T07:41:55.679Z,4.18
2023-04-04T07:42:57.929Z,3.70
2023-04-04T07:44:00.399Z,4.15
2023-04-04T07:45:02.517Z,5.03
2023-04-04T07:46:04.775Z,3.90
2023-04-04T07:47:10.243Z,3.67
2023-04-04T07:48:12.718Z,3.35
2023-04-04T07:49:14.818Z,4.32
2023-04-04T07:50:17.006Z,3.83
2023-04-04T07:51:23.931Z,3.15
2023-04-04T07:52:26.058Z,4.05
2023-04-04T07:53:28.414Z,3.53
2023-04-04T07:54:30.514Z,3.53
2023-04-04T07:55:32.705Z,3.85
2023-04-04T07:56:34.828Z,3.53
2023-04-04T07:57:39.950Z,3.88
2023-04-04T07:58:42.172Z,3.10
2023-04-04T07:59:44.722Z,4.13
2023-04-04T08:00:46.798Z,4.40
2023-04-04T08:01:48.889Z,3.10
2023-04-04T08:02:55.720Z,2.72
2023-04-04T08:03:58.052Z,3.35
2023-04-04T08:05:00.442Z,3.22
2023-04-04T08:06:02.705Z,3.63
2023-04-04T08:07:04.881Z,3.72
2023-04-04T08:08:07.189Z,3.47
2023-04-04T08:09:09.557Z,5.28
2023-04-04T08:10:11.856Z,3.22
2023-04-04T08:11:13.973Z,4.32
2023-04-04T08:12:16.688Z,3.58
2023-04-04T08:13:18.855Z,3.85
2023-04-04T08:14:20.929Z,3.10
2023-04-04T08:15:23.074Z,3.58
2023-04-04T08:16:25.242Z,3.60
2023-04-04T08:17:28.152Z,3.78
2023-04-04T08:18:30.376Z,3.90
2023-04-04T08:19:32.528Z,3.72
2023-04-04T08:20:35.648Z,3.10
2023-04-04T08:21:37.751Z,3.22
2023-04-04T08:22:41.179Z,3.05
2023-04-04T08:23:43.308Z,3.47
2023-04-04T08:24:46.461Z,4.25
2023-04-04T08:25:48.576Z,4.10
2023-04-04T08:27:01.822Z,3.78
2023-04-04T08:28:07.190Z,3.80
2023-04-04T08:29:10.341Z,2.85
2023-04-04T08:30:14.408Z,3.42
2023-04-04T08:31:17.003Z,3.22
2023-04-04T08:32:19.202Z,3.28
2023-04-04T08:33:23.364Z,2.97
2023-04-04T08:34:26.482Z,3.00
2023-04-04T08:35:28.750Z,3.78
2023-04-04T08:36:30.943Z,3.70
2023-04-04T08:37:33.136Z,4.20
2023-04-04T08:38:35.240Z,3.00
2023-04-04T08:39:38.077Z,3.63
2023-04-04T08:40:40.769Z,3.60
2023-04-04T08:41:45.301Z,3.35
2023-04-04T08:42:48.497Z,3.60
2023-04-04T08:43:54.654Z,3.63
2023-04-04T08:44:57.561Z,3.35
2023-04-04T08:46:00.595Z,3.10
2023-04-04T08:47:09.235Z,3.20
2023-04-04T08:48:15.356Z,4.65
2023-04-04T08:49:18.869Z,3.70
2023-04-04T08:50:21.596Z,4.78
2023-04-04T08:51:26.223Z,3.35
2023-04-04T08:52:28.660Z,3.40
2023-04-04T08:53:32.381Z,4.05
2023-04-04T08:54:35.065Z,3.42
2023-04-04T08:55:38.018Z,3.40
2023-04-04T08:56:40.147Z,3.38
2023-04-04T08:57:43.448Z,3.65
2023-04-04T08:58:45.642Z,3.88
2023-04-04T08:59:48.431Z,3.90
2023-04-04T09:00:56.559Z,3.30
2023-04-04T09:02:05.825Z,5.82
2023-04-04T09:03:31.169Z,3.63
2023-04-04T09:04:33.562Z,3.33
2023-04-04T09:05:36.273Z,3.55
2023-04-04T09:06:39.119Z,2.95
2023-04-04T09:07:41.294Z,3.42
2023-04-04T09:08:43.949Z,3.22
2023-04-04T09:09:47.288Z,3.45
2023-04-04T09:10:49.431Z,4.07
2023-04-04T09:11:52.810Z,3.75
2023-04-04T09:12:57.277Z,4.70
2023-04-04T09:14:04.765Z,5.13
2023-04-04T09:15:07.243Z,3.60
2023-04-04T09:16:09.429Z,7.10
2023-04-04T09:17:11.939Z,4.88
2023-04-04T09:18:14.170Z,3.40
2023-04-04T09:19:16.932Z,3.85
2023-04-04T09:20:41.986Z,3.50
2023-04-04T09:21:48.136Z,3.38
2023-04-04T09:22:50.317Z,3.92
2023-04-04T09:24:02.014Z,4.97
2023-04-04T09:25:08.525Z,2.97
2023-04-04T09:26:13.307Z,3.60
2023-04-04T09:28:18.109Z,3.55
2023-04-04T09:29:21.372Z,4.32
2023-04-04T09:30:23.909Z,3.78
2023-04-04T09:31:26.182Z,2.72
2023-04-04T09:32:28.348Z,3.47
2023-04-04T09:33:31.558Z,3.38
2023-04-04T09:34:33.943Z,4.15
2023-04-04T09:35:41.565Z,3.17
2023-04-04T09:36:45.427Z,3.53
2023-04-04T09:37:48.097Z,3.58
2023-04-04T09:38:53.499Z,3.60
2023-04-04T09:39:55.820Z,3.47
2023-04-04T09:40:58.309Z,3.60
2023-04-04T09:42:01.133Z,3.08
2023-04-04T09:43:07.118Z,3.55
2023-04-04T09:44:12.258Z,4.05
2023-04-04T09:45:22.415Z,3.95
2023-04-04T09:46:32.239Z,3.33
2023-04-04T09:47:41.628Z,4.00
2023-04-04T09:48:50.114Z,3.42
2023-04-04T09:49:52.703Z,3.17
2023-04-04T09:50:55.094Z,3.58
2023-04-04T09:51:57.197Z,3.08
2023-04-04T09:53:00.500Z,2.78
2023-04-04T09:54:02.876Z,2.90
2023-04-04T09:55:06.571Z,3.42
2023-04-04T09:56:09.035Z,3.38
2023-04-04T09:57:11.609Z,3.00
2023-04-04T09:58:18.433Z,3.55
2023-04-04T09:59:20.785Z,2.83
2023-04-04T10:00:23.092Z,3.47
2023-04-04T10:01:25.696Z,4.00
2023-04-04T10:02:30.603Z,4.32
2023-04-04T10:03:32.816Z,3.20
2023-04-04T10:04:35.794Z,3.42
2023-04-04T10:05:38.625Z,3.50
2023-04-04T10:06:43.464Z,3.72
2023-04-04T10:07:47.327Z,3.67
2023-04-04T10:08:50.011Z,3.28
2023-04-04T10:09:52.797Z,3.22
2023-04-04T10:11:10.403Z,3.30
2023-04-04T10:12:14.804Z,3.45
2023-04-04T10:13:24.918Z,3.67
2023-04-04T10:14:35.037Z,2.75
2023-04-04T10:15:38.431Z,5.57
2023-04-04T10:16:45.217Z,3.58
2023-04-04T10:17:48.286Z,4.00
2023-04-04T10:18:51.550Z,3.40
2023-04-04T10:19:54.124Z,2.97
2023-04-04T10:21:12.024Z,4.25
2023-04-04T10:22:17.245Z,3.28
2023-04-04T10:23:20.700Z,3.28
2023-04-04T10:24:22.987Z,2.83
2023-04-04T10:25:25.545Z,2.80
2023-04-04T10:26:27.817Z,3.58
2023-04-04T10:27:29.962Z,3.63
2023-04-04T10:28:32.724Z,3.33
2023-04-04T10:29:34.878Z,3.20
2023-04-04T10:30:47.495Z,3.50
2023-04-04T10:32:01.341Z,3.30
2023-04-04T10:33:32.906Z,2.83
2023-04-04T10:34:57.205Z,3.17
2023-04-04T10:36:03.252Z,3.63
2023-04-04T10:37:12.299Z,3.00
2023-04-04T10:38:16.522Z,3.35
2023-04-04T10:39:33.452Z,2.90
2023-04-04T10:40:38.895Z,2.92
2023-04-04T10:41:41.612Z,3.25
2023-04-04T10:42:47.467Z,3.05
2023-04-04T10:43:51.476Z,3.50
2023-04-04T10:44:54.088Z,3.95
2023-04-04T10:46:01.140Z,3.38
2023-04-04T10:47:15.789Z,2.92
2023-04-04T10:48:18.926Z,3.10
2023-04-04T10:49:21.811Z,3.15
2023-04-04T10:50:24.132Z,3.78
2023-04-04T10:51:27.208Z,3.35
2023-04-04T10:52:30.746Z,3.05
2023-04-04T10:53:34.078Z,3.60
2023-04-04T10:54:36.399Z,3.47
2023-04-04T10:55:40.572Z,2.97
2023-04-04T10:56:43.227Z,3.15
2023-04-04T10:57:51.989Z,2.97
2023-04-04T10:59:12.325Z,2.65
2023-04-04T11:00:17.889Z,3.05
2023-04-04T11:01:22.260Z,4.43
2023-04-04T11:02:44.957Z,3.15
2023-04-04T11:04:18.812Z,3.10
2023-04-04T11:05:25.148Z,3.30
2023-04-04T11:07:06.313Z,2.80
2023-04-04T11:08:13.993Z,3.13
2023-04-04T11:10:05.388Z,2.70
2023-04-04T11:11:19.932Z,3.42
2023-04-04T11:12:31.513Z,3.30
2023-04-04T11:13:37.720Z,3.70
2023-04-04T11:14:54.763Z,2.75
2023-04-04T11:15:59.976Z,3.10
2023-04-04T11:17:05.441Z,3.60
2023-04-04T11:18:17.964Z,3.53
2023-04-04T11:19:30.370Z,3.85
2023-04-04T11:20:36.805Z,4.65
2023-04-04T11:21:39.353Z,3.45
2023-04-04T11:22:42.802Z,3.88
2023-04-04T11:23:48.157Z,3.40
2023-04-04T11:25:00.169Z,3.22
2023-04-04T11:26:03.572Z,3.10
2023-04-04T11:27:07.769Z,2.95
2023-04-04T11:28:14.974Z,2.90
2023-04-04T11:29:23.033Z,3.05
2023-04-04T11:30:26.478Z,2.78
2023-04-04T11:31:43.910Z,4.00
2023-04-04T11:32:59.771Z,3.50
2023-04-04T11:34:13.155Z,3.28
2023-04-04T11:35:15.968Z,3.05
2023-04-04T11:36:35.393Z,3.60
2023-04-04T11:37:55.342Z,3.70
2023-04-04T11:38:58.375Z,3.38
2023-04-04T11:40:09.398Z,4.78
2023-04-04T11:42:14.222Z,3.17
2023-04-04T11:43:17.118Z,2.90
2023-04-04T11:44:21.541Z,3.60
2023-04-04T11:45:25.728Z,3.08
2023-04-04T11:46:29.170Z,3.10
2023-04-04T11:47:31.846Z,3.25
2023-04-04T11:48:34.141Z,3.75
2023-04-04T11:49:38.406Z,3.83
2023-04-04T11:50:41.517Z,3.08
2023-04-04T11:51:43.645Z,2.90
2023-04-04T11:52:46.192Z,2.97
2023-04-04T11:53:48.601Z,3.00
2023-04-04T11:54:50.846Z,3.30
2023-04-04T11:55:53.509Z,3.35
2023-04-04T11:56:55.637Z,2.97
2023-04-04T11:58:06.213Z,2.80
2023-04-04T11:59:11.779Z,3.00
2023-04-04T12:00:37.955Z,3.63
2023-04-04T12:01:40.545Z,2.42
2023-04-04T12:02:43.633Z,2.90
2023-04-04T12:03:46.702Z,3.35
2023-04-04T12:04:51.408Z,3.20
2023-04-04T12:05:53.667Z,3.40
2023-04-04T12:06:56.775Z,2.78
2023-04-04T12:08:00.188Z,3.40
2023-04-04T12:09:06.510Z,2.97
2023-04-04T12:10:09.100Z,3.03
2023-04-04T12:11:15.660Z,3.10
2023-04-04T12:12:17.914Z,2.78
2023-04-04T12:13:20.103Z,2.80
2023-04-04T12:14:23.823Z,3.22
2023-04-04T12:15:29.271Z,3.13
2023-04-04T12:16:31.413Z,3.17
2023-04-04T12:17:34.695Z,3.03
2023-04-04T12:18:37.397Z,2.85
2023-04-04T12:19:41.020Z,3.50
2023-04-04T12:20:48.204Z,3.20
2023-04-04T12:21:52.382Z,3.33
2023-04-04T12:22:54.560Z,3.05
2023-04-04T12:23:56.698Z,3.25
2023-04-04T12:24:58.997Z,2.90
2023-04-04T12:26:03.693Z,3.60
2023-04-04T12:27:06.367Z,4.10
2023-04-04T12:28:08.800Z,2.85
2023-04-04T12:29:12.905Z,3.88
2023-04-04T12:30:16.175Z,5.22
2023-04-04T12:31:18.477Z,3.15
2023-04-04T12:32:20.767Z,3.25
2023-04-04T12:33:23.041Z,3.38
2023-04-04T12:35:37.791Z,2.92
2023-04-04T12:36:40.586Z,3.00
2023-04-04T12:38:10.795Z,3.17
2023-04-04T12:40:16.133Z,3.30
2023-04-04T12:41:19.602Z,2.72
2023-04-04T12:42:23.694Z,3.25
2023-04-04T12:43:33.828Z,3.60
2023-04-04T12:44:37.754Z,2.90
2023-04-04T12:45:40.530Z,3.33
2023-04-04T12:46:44.122Z,2.88
2023-04-04T12:47:55.093Z,3.65
2023-04-04T12:48:57.568Z,3.08
2023-04-04T12:49:59.805Z,2.88
2023-04-04T12:51:02.496Z,3.22
2023-04-04T12:52:07.199Z,3.33
2023-04-04T12:53:27.311Z,3.40
2023-04-04T12:54:32.437Z,3.25
2023-04-04T12:55:35.508Z,3.03
2023-04-04T12:56:37.791Z,4.00
2023-04-04T12:57:40.059Z,3.75
2023-04-04T12:58:47.530Z,2.85
2023-04-04T12:59:50.246Z,3.00
2023-04-04T13:00:54.685Z,3.40
2023-04-04T13:01:57.041Z,3.03
2023-04-04T13:02:59.238Z,3.33
2023-04-04T13:04:04.662Z,3.33
2023-04-04T13:05:07.814Z,3.30
2023-04-04T13:06:17.039Z,3.45
2023-04-04T13:07:32.679Z,3.80
2023-04-04T13:08:35.077Z,3.42
2023-04-04T13:09:52.563Z,3.40
2023-04-04T13:10:59.756Z,3.05
2023-04-04T13:12:05.894Z,3.08
2023-04-04T13:13:08.012Z,3.97
2023-04-04T13:14:13.070Z,3.00
2023-04-04T13:15:16.657Z,3.28
2023-04-04T13:16:33.153Z,3.67
2023-04-04T13:17:49.091Z,3.13
2023-04-04T13:18:51.316Z,3.40
2023-04-04T13:19:53.454Z,2.88
2023-04-04T13:20:55.654Z,2.92
2023-04-04T13:21:58.395Z,3.25
2023-04-04T13:23:00.523Z,3.70
2023-04-04T13:24:04.005Z,3.22
2023-04-04T13:25:07.216Z,3.80
2023-04-04T13:26:10.701Z,3.50
2023-04-04T13:27:12.936Z,3.45
2023-04-04T13:28:15.801Z,3.40
2023-04-04T13:29:18.106Z,3.25
2023-04-04T13:30:20.230Z,3.40
2023-04-04T13:31:22.494Z,3.28
2023-04-04T13:32:24.662Z,4.15
2023-04-04T13:33:26.850Z,4.32
2023-04-04T13:34:28.993Z,3.45
2023-04-04T13:35:31.835Z,3.03
2023-04-04T13:36:34.056Z,3.50
2023-04-04T13:37:36.376Z,3.28
2023-04-04T13:38:38.800Z,3.08
2023-04-04T13:39:41.029Z,3.38
2023-04-04T13:40:43.366Z,2.97
2023-04-04T13:41:45.889Z,3.47
2023-04-04T13:42:47.974Z,3.45
2023-04-04T13:43:50.725Z,3.40
2023-04-04T13:44:52.859Z,3.30
2023-04-04T13:45:55.902Z,3.50
2023-04-04T13:46:58.309Z,3.15
2023-04-04T13:48:01.045Z,3.38
2023-04-04T13:49:03.721Z,3.30
2023-04-04T13:50:07.343Z,3.63
2023-04-04T13:51:09.442Z,3.17
2023-04-04T13:52:11.680Z,3.85
2023-04-04T13:53:13.795Z,3.28
2023-04-04T13:54:16.264Z,3.50
2023-04-04T13:55:18.499Z,3.42
2023-04-04T13:56:22.236Z,3.28
2023-04-04T13:57:24.659Z,3.08
2023-04-04T13:58:26.836Z,3.10
2023-04-04T13:59:28.999Z,3.25
2023-04-04T14:00:32.174Z,3.33
2023-04-04T14:01:34.443Z,3.78
2023-04-04T14:02:37.045Z,3.05
2023-04-04T14:03:39.374Z,3.10
2023-04-04T14:04:41.686Z,4.07
2023-04-04T14:05:44.122Z,3.42
2023-04-04T14:06:47.201Z,3.42
2023-04-04T14:07:49.527Z,3.53
2023-04-04T14:08:51.889Z,3.13
2023-04-04T14:09:54.013Z,3.58
2023-04-04T14:10:56.328Z,3.85
2023-04-04T14:11:58.439Z,3.83
2023-04-04T14:13:00.593Z,3.53
2023-04-04T14:14:02.710Z,3.60
2023-04-04T14:15:07.324Z,3.95